Terminal Aerodrome Forecast
Issued by NWS Cleveland, OH

Home | Current Version | Previous Version | Graphics & Text | Print | Product List | Glossary On
Versions: 1 2 3 4 5 6 7 8 9 10 11 12 13 14 15 16 17 18 19 20 21 22
000
FTUS41 KCLE 182336
TAFCLE
TAF
KCLE 182336Z 1900/2006 27010KT P6SM BKN070
     FM190200 26008KT P6SM FEW070
     FM191000 24006KT P6SM BKN120
     FM191500 26008KT P6SM -SHRA VCTS BKN050CB
     FM191900 30009KT P6SM BKN070
     FM192100 30007KT P6SM SCT070=

USA.gov is the U.S. government's official web portal to all federal, state and local government web resources and services.